createdAt,value
2018-11-04T00:01:34.870Z,13.30
2018-11-04T00:04:03.600Z,12.37
2018-11-04T00:06:32.290Z,12.90
2018-11-04T00:09:01.016Z,12.93
2018-11-04T00:11:30.067Z,13.53
2018-11-04T00:13:58.769Z,14.20
2018-11-04T00:19:01.424Z,11.50
2018-11-04T00:21:30.225Z,11.70
2018-11-04T00:23:59.002Z,12.60
2018-11-04T00:26:27.862Z,13.70
2018-11-04T00:28:56.626Z,12.47
2018-11-04T00:31:25.311Z,11.63
2018-11-04T00:33:54.146Z,11.97
2018-11-04T00:36:22.936Z,12.67
2018-11-04T00:38:51.645Z,12.90
2018-11-04T00:41:20.430Z,13.80
2018-11-04T00:43:49.255Z,11.53
2018-11-04T00:46:17.965Z,13.10
2018-11-04T00:48:46.891Z,12.57
2018-11-04T00:51:15.631Z,11.95
2018-11-04T00:53:44.350Z,12.05
2018-11-04T00:56:13.108Z,12.70
2018-11-04T00:58:41.820Z,12.43
2018-11-04T01:01:10.590Z,11.63
2018-11-04T01:03:39.840Z,12.25
2018-11-04T01:06:09.752Z,11.05
2018-11-04T01:08:38.443Z,11.13
2018-11-04T01:11:07.170Z,11.67
2018-11-04T01:13:35.874Z,12.30
2018-11-04T01:16:04.676Z,11.97
2018-11-04T01:18:33.579Z,12.00
2018-11-04T01:21:02.386Z,11.20
2018-11-04T01:23:31.131Z,12.50
2018-11-04T01:25:59.877Z,10.70
2018-11-04T01:28:28.608Z,11.73
2018-11-04T01:30:57.301Z,11.43
2018-11-04T01:33:26.177Z,12.10
2018-11-04T01:35:54.867Z,10.80
2018-11-04T01:38:23.535Z,11.05
2018-11-04T01:40:52.638Z,11.48
2018-11-04T01:43:21.316Z,13.47
2018-11-04T01:45:50.082Z,12.13
2018-11-04T01:48:18.883Z,11.47
2018-11-04T01:50:47.670Z,10.85
2018-11-04T01:53:16.362Z,10.57
2018-11-04T01:55:45.189Z,11.45
2018-11-04T01:58:13.894Z,11.08
2018-11-04T02:00:42.606Z,11.12
2018-11-04T02:03:11.581Z,10.67
2018-11-04T02:05:40.294Z,10.70
2018-11-04T02:08:09.711Z,10.93
2018-11-04T02:10:38.521Z,10.90
2018-11-04T02:13:07.207Z,11.20
2018-11-04T02:15:35.891Z,10.83
2018-11-04T02:18:04.705Z,11.50
2018-11-04T02:20:33.390Z,12.00
2018-11-04T02:23:02.086Z,11.60
2018-11-04T02:25:30.834Z,10.70
2018-11-04T02:27:59.551Z,11.93
2018-11-04T02:30:28.210Z,10.07
2018-11-04T02:32:57.028Z,10.60
2018-11-04T02:35:25.742Z,11.25
2018-11-04T02:37:54.472Z,11.60
2018-11-04T02:40:23.287Z,10.77
2018-11-04T02:42:52.038Z,11.77
2018-11-04T02:45:20.815Z,10.50
2018-11-04T02:47:49.648Z,12.13
2018-11-04T02:50:18.481Z,10.83
2018-11-04T02:52:47.133Z,10.35
2018-11-04T02:55:15.879Z,10.97
2018-11-04T02:57:44.602Z,11.03
2018-11-04T03:00:14.899Z,10.50
2018-11-04T03:02:44.003Z,10.37
2018-11-04T03:05:12.888Z,11.48
2018-11-04T03:07:42.292Z,11.30
2018-11-04T03:10:12.329Z,9.77
2018-11-04T03:12:41.230Z,10.93
2018-11-04T03:15:10.202Z,10.27
2018-11-04T03:17:40.040Z,10.25
2018-11-04T03:20:08.805Z,10.80
2018-11-04T03:22:37.543Z,12.00
2018-11-04T03:25:07.056Z,11.47
2018-11-04T03:27:35.839Z,10.85
2018-11-04T03:30:04.672Z,10.20
2018-11-04T03:32:33.510Z,10.70
2018-11-04T03:35:02.195Z,10.63
2018-11-04T03:37:30.979Z,10.77
2018-11-04T03:39:59.723Z,10.80
2018-11-04T03:42:28.408Z,11.40
2018-11-04T03:44:57.111Z,11.03
2018-11-04T03:47:25.994Z,10.43
2018-11-04T03:49:54.708Z,11.67
2018-11-04T03:52:23.421Z,12.20
2018-11-04T03:54:52.182Z,11.87
2018-11-04T03:57:20.893Z,11.80
2018-11-04T03:59:49.611Z,11.18
2018-11-04T04:02:18.422Z,11.12
2018-11-04T04:04:47.116Z,10.90
2018-11-04T04:07:16.122Z,11.43
2018-11-04T04:09:44.942Z,10.96
2018-11-04T04:12:13.651Z,11.33
2018-11-04T04:14:42.357Z,11.37
2018-11-04T04:17:11.228Z,10.57
2018-11-04T04:19:39.904Z,10.90
2018-11-04T04:22:08.591Z,10.67
2018-11-04T04:24:37.412Z,12.43
2018-11-04T04:27:06.278Z,10.90
2018-11-04T04:29:34.995Z,12.40
2018-11-04T04:32:03.888Z,11.17
2018-11-04T04:34:32.602Z,11.23
2018-11-04T04:37:01.327Z,11.20
2018-11-04T04:39:30.061Z,11.57
2018-11-04T04:41:58.871Z,10.50
2018-11-04T04:44:27.654Z,11.07
2018-11-04T04:46:56.501Z,10.98
2018-11-04T04:49:25.242Z,11.27
2018-11-04T04:51:53.986Z,10.70
2018-11-04T04:54:22.738Z,10.15
2018-11-04T04:56:51.438Z,11.30
2018-11-04T04:59:20.185Z,10.03
2018-11-04T05:01:49.102Z,11.23
2018-11-04T05:04:17.776Z,10.60
2018-11-04T05:06:46.515Z,11.12
2018-11-04T05:09:15.395Z,11.73
2018-11-04T05:11:44.101Z,10.83
2018-11-04T05:14:12.817Z,11.37
2018-11-04T05:16:41.691Z,11.53
2018-11-04T05:19:10.391Z,10.53
2018-11-04T05:21:39.973Z,11.10
2018-11-04T05:24:08.787Z,13.23
2018-11-04T05:26:37.753Z,11.67
2018-11-04T05:29:06.641Z,12.20
2018-11-04T05:31:35.429Z,12.30
2018-11-04T05:34:04.197Z,10.93
2018-11-04T05:36:32.948Z,11.60
2018-11-04T05:39:01.806Z,12.97
2018-11-04T05:41:30.589Z,11.30
2018-11-04T05:43:59.300Z,12.23
2018-11-04T05:46:28.151Z,12.53
2018-11-04T05:48:56.860Z,12.47
2018-11-04T05:51:25.566Z,13.23
2018-11-04T05:53:56.937Z,14.78
2018-11-04T05:56:25.625Z,12.23
2018-11-04T05:58:54.338Z,11.57
2018-11-04T06:01:23.253Z,11.93
2018-11-04T06:03:52.002Z,12.70
2018-11-04T06:06:20.772Z,11.85
2018-11-04T06:08:49.813Z,13.80
2018-11-04T06:11:18.670Z,11.97
2018-11-04T06:13:47.413Z,11.97
2018-11-04T06:16:16.434Z,11.97
2018-11-04T06:18:45.126Z,12.03
2018-11-04T06:21:13.846Z,13.07
2018-11-04T06:23:42.638Z,11.60
2018-11-04T06:26:11.347Z,11.93
2018-11-04T06:28:40.270Z,10.95
2018-11-04T06:31:09.135Z,14.73
2018-11-04T06:33:37.832Z,12.40
2018-11-04T06:36:06.767Z,12.63
2018-11-04T06:38:35.525Z,11.50
2018-11-04T06:41:04.265Z,11.37
2018-11-04T06:43:32.984Z,10.83
2018-11-04T06:46:01.845Z,12.30
2018-11-04T06:48:30.539Z,12.67
2018-11-04T06:50:59.235Z,11.40
2018-11-04T06:53:28.092Z,10.83
2018-11-04T06:55:57.698Z,11.90
2018-11-04T06:58:26.406Z,10.85
2018-11-04T07:00:55.246Z,10.70
2018-11-04T07:03:24.022Z,12.07
2018-11-04T07:05:52.859Z,12.68
2018-11-04T07:08:21.787Z,11.83
2018-11-04T07:10:50.502Z,11.53
2018-11-04T07:13:19.417Z,11.60
2018-11-04T07:15:48.201Z,11.03
2018-11-04T07:18:16.939Z,11.70
2018-11-04T07:20:45.841Z,12.13
2018-11-04T07:23:14.906Z,13.15
2018-11-04T07:25:43.701Z,13.07
2018-11-04T07:28:12.300Z,11.88
2018-11-04T07:30:41.141Z,11.30
2018-11-04T07:33:10.345Z,11.88
2018-11-04T07:35:39.183Z,14.17
2018-11-04T07:38:08.116Z,12.73
2018-11-04T07:40:36.912Z,12.97
2018-11-04T07:43:06.217Z,13.83
2018-11-04T07:45:35.019Z,12.10
2018-11-04T07:48:03.768Z,12.63
2018-11-04T07:50:32.493Z,13.00
2018-11-04T07:53:01.369Z,13.93
2018-11-04T07:55:30.126Z,16.17
2018-11-04T07:57:58.827Z,14.50
2018-11-04T08:00:27.554Z,14.07
2018-11-04T08:02:56.259Z,14.35
2018-11-04T08:05:24.966Z,16.80
2018-11-04T08:07:53.888Z,16.13
2018-11-04T08:10:22.639Z,15.40
2018-11-04T08:12:51.359Z,16.45
2018-11-04T08:15:20.360Z,16.90
2018-11-04T08:17:49.155Z,18.32
2018-11-04T08:20:17.973Z,17.55
2018-11-04T08:22:46.701Z,18.13
2018-11-04T08:25:15.435Z,18.35
2018-11-04T08:27:44.375Z,18.13
2018-11-04T08:30:13.115Z,17.87
2018-11-04T08:32:41.839Z,19.40
2018-11-04T08:35:10.597Z,17.00
2018-11-04T08:37:40.541Z,19.95
2018-11-04T08:40:09.375Z,20.00
2018-11-04T08:42:38.004Z,20.37
2018-11-04T08:45:07.786Z,20.60
2018-11-04T08:47:36.581Z,20.77
2018-11-04T08:50:06.543Z,23.00
2018-11-04T08:52:35.713Z,24.80
2018-11-04T08:55:04.498Z,25.97
2018-11-04T08:57:33.191Z,23.37
2018-11-04T09:00:02.051Z,24.77
2018-11-04T09:02:30.765Z,27.43
2018-11-04T09:04:59.455Z,26.57
2018-11-04T09:07:28.218Z,26.27
2018-11-04T09:09:56.924Z,27.22
2018-11-04T09:12:25.599Z,26.40
2018-11-04T09:14:54.431Z,26.17
2018-11-04T09:17:23.317Z,28.17
2018-11-04T09:19:51.959Z,29.03
2018-11-04T09:22:20.856Z,35.97
2018-11-04T09:24:49.530Z,31.20
2018-11-04T09:27:18.279Z,31.77
2018-11-04T09:29:47.123Z,29.05
2018-11-04T09:32:15.855Z,30.13
2018-11-04T09:34:44.609Z,30.77
2018-11-04T09:37:13.444Z,32.43
2018-11-04T09:39:42.198Z,33.70
2018-11-04T09:42:10.943Z,30.73
2018-11-04T09:44:40.999Z,30.73
2018-11-04T09:47:10.539Z,32.35
2018-11-04T09:49:39.233Z,34.23
2018-11-04T09:52:08.067Z,30.53
2018-11-04T09:54:36.786Z,32.83
2018-11-04T09:57:05.583Z,32.78
2018-11-04T09:59:34.444Z,35.27
2018-11-04T10:02:03.474Z,31.67
2018-11-04T10:04:32.137Z,31.67
2018-11-04T10:07:00.930Z,32.03
2018-11-04T10:09:29.675Z,33.00
2018-11-04T10:11:58.386Z,31.60
2018-11-04T10:14:27.234Z,31.68
2018-11-04T10:16:55.899Z,32.13
2018-11-04T10:19:24.886Z,31.60
2018-11-04T10:21:53.600Z,29.32
2018-11-04T10:24:22.328Z,29.23
2018-11-04T10:26:51.282Z,30.77
2018-11-04T10:29:20.165Z,30.20
2018-11-04T10:31:48.912Z,29.27
2018-11-04T10:34:17.673Z,29.48
2018-11-04T10:36:46.511Z,29.80
2018-11-04T10:39:15.237Z,30.70
2018-11-04T10:41:44.421Z,27.93
2018-11-04T10:44:13.288Z,30.33
2018-11-04T10:46:41.989Z,28.30
2018-11-04T10:49:10.745Z,29.73
2018-11-04T10:51:39.445Z,28.40
2018-11-04T10:54:08.208Z,29.43
2018-11-04T10:56:36.985Z,29.90
2018-11-04T10:59:06.136Z,29.17
2018-11-04T11:01:34.880Z,34.80
2018-11-04T11:04:03.639Z,29.07
2018-11-04T11:06:32.385Z,29.33
2018-11-04T11:09:01.149Z,28.80
2018-11-04T11:11:29.853Z,28.97
2018-11-04T11:13:58.666Z,28.50
2018-11-04T11:16:27.354Z,29.10
2018-11-04T11:18:56.110Z,30.95
2018-11-04T11:21:25.082Z,31.30
2018-11-04T11:23:53.892Z,30.65
2018-11-04T11:26:22.651Z,30.90
2018-11-04T11:28:51.410Z,30.00
2018-11-04T11:31:20.102Z,28.77
2018-11-04T11:33:48.782Z,29.30
2018-11-04T11:36:17.591Z,30.33
2018-11-04T11:38:46.314Z,30.17
2018-11-04T11:41:15.023Z,28.23
2018-11-04T11:43:43.835Z,29.10
2018-11-04T11:46:12.599Z,29.40
2018-11-04T11:48:41.328Z,27.97
2018-11-04T11:51:10.734Z,28.37
2018-11-04T11:53:39.428Z,29.23
2018-11-04T11:56:08.164Z,28.80
2018-11-04T11:58:37.058Z,29.23
2018-11-04T12:01:05.864Z,29.35
2018-11-04T12:03:34.550Z,28.50
2018-11-04T12:06:03.331Z,29.70
2018-11-04T12:08:32.044Z,30.47
2018-11-04T12:11:00.718Z,31.10
2018-11-04T12:13:29.644Z,29.40
2018-11-04T12:15:58.435Z,30.35
2018-11-04T12:18:27.223Z,30.53
2018-11-04T12:20:56.121Z,29.10
2018-11-04T12:23:24.903Z,30.40
2018-11-04T12:25:53.646Z,29.00
2018-11-04T12:28:22.545Z,28.70
2018-11-04T12:30:51.230Z,29.83
2018-11-04T12:33:19.934Z,29.43
2018-11-04T12:35:48.816Z,28.57
2018-11-04T12:38:17.530Z,35.78
2018-11-04T12:40:46.310Z,30.23
2018-11-04T12:43:15.143Z,29.70
2018-11-04T12:45:43.951Z,29.60
2018-11-04T12:48:12.584Z,27.90
2018-11-04T12:50:41.974Z,27.87
2018-11-04T12:53:10.879Z,29.55
2018-11-04T12:55:39.559Z,29.33
2018-11-04T12:58:08.306Z,27.77
2018-11-04T13:00:37.115Z,30.20
2018-11-04T13:03:06.512Z,28.77
2018-11-04T13:05:35.288Z,29.20
2018-11-04T13:08:04.082Z,30.50
2018-11-04T13:10:32.919Z,29.80
2018-11-04T13:13:01.710Z,29.60
2018-11-04T13:15:30.487Z,31.37
2018-11-04T13:17:59.230Z,30.00
2018-11-04T13:20:28.114Z,30.73
2018-11-04T13:22:56.820Z,30.60
2018-11-04T13:25:25.588Z,30.00
2018-11-04T13:27:54.322Z,43.17
2018-11-04T13:30:23.026Z,32.98
2018-11-04T13:32:51.778Z,31.52
2018-11-04T13:35:20.683Z,29.80
2018-11-04T13:37:49.461Z,30.40
2018-11-04T13:40:18.179Z,30.70
2018-11-04T13:42:47.135Z,32.23
2018-11-04T13:45:15.895Z,29.70
2018-11-04T13:47:44.566Z,30.63
2018-11-04T13:50:14.744Z,33.27
2018-11-04T13:52:44.260Z,31.37
2018-11-04T13:55:13.062Z,32.53
2018-11-04T13:57:42.179Z,29.23
2018-11-04T14:00:13.948Z,31.63
2018-11-04T14:02:43.654Z,30.13
2018-11-04T14:05:12.464Z,32.37
2018-11-04T14:07:42.067Z,32.23
2018-11-04T14:10:12.938Z,30.95
2018-11-04T14:12:42.362Z,31.57
2018-11-04T14:15:11.486Z,32.55
2018-11-04T14:17:41.245Z,32.27
2018-11-04T14:20:11.314Z,30.83
2018-11-04T14:22:40.469Z,33.08
2018-11-04T14:25:12.194Z,32.93
2018-11-04T14:27:41.213Z,31.47
2018-11-04T14:30:12.057Z,31.80
2018-11-04T14:32:41.412Z,32.73
2018-11-04T14:35:11.928Z,32.20
2018-11-04T14:37:42.644Z,32.63
2018-11-04T14:40:13.361Z,34.70
2018-11-04T14:42:43.157Z,32.42
2018-11-04T14:45:14.333Z,36.20
2018-11-04T14:47:43.074Z,38.37
2018-11-04T14:52:57.964Z,33.37
2018-11-04T14:55:26.682Z,32.90
2018-11-04T14:57:55.388Z,32.93
2018-11-04T15:00:24.110Z,32.70
2018-11-04T15:02:52.903Z,33.70
2018-11-04T15:05:22.027Z,36.33
2018-11-04T15:07:50.909Z,33.00
2018-11-04T15:10:19.745Z,32.40
2018-11-04T15:12:48.470Z,36.67
2018-11-04T15:15:17.953Z,35.87
2018-11-04T15:17:46.750Z,35.00
2018-11-04T15:20:15.490Z,35.63
2018-11-04T15:22:48.979Z,35.90
2018-11-04T15:25:19.974Z,35.23
2018-11-04T15:27:49.231Z,33.07
2018-11-04T15:30:18.090Z,35.13
2018-11-04T15:32:48.220Z,33.67
2018-11-04T15:35:17.928Z,35.47
2018-11-04T15:37:46.836Z,33.93
2018-11-04T15:40:16.488Z,33.67
2018-11-04T15:42:45.282Z,32.47
2018-11-04T15:45:15.100Z,31.43
2018-11-04T15:47:46.472Z,34.00
2018-11-04T15:50:17.470Z,32.55
2018-11-04T15:52:46.838Z,31.95
2018-11-04T15:55:15.771Z,33.53
2018-11-04T15:57:44.502Z,33.00
2018-11-04T16:00:14.623Z,36.20
2018-11-04T16:02:43.504Z,32.83
2018-11-04T16:05:12.608Z,32.17
2018-11-04T16:07:41.420Z,32.33
2018-11-04T16:10:10.987Z,31.90
2018-11-04T16:12:40.099Z,29.83
2018-11-04T16:15:10.875Z,33.13
2018-11-04T16:17:39.755Z,33.53
2018-11-04T16:20:10.426Z,30.43
2018-11-04T16:22:39.825Z,31.40
2018-11-04T16:25:08.982Z,32.20
2018-11-04T16:27:37.924Z,31.77
2018-11-04T16:30:08.496Z,32.87
2018-11-04T16:32:37.722Z,32.63
2018-11-04T16:35:07.557Z,33.77
2018-11-04T16:37:36.301Z,32.55
2018-11-04T16:40:05.443Z,33.20
2018-11-04T16:42:34.151Z,34.47
2018-11-04T16:45:03.263Z,35.37
2018-11-04T16:47:32.163Z,36.00
2018-11-04T16:50:00.998Z,36.23
2018-11-04T16:52:29.833Z,34.13
2018-11-04T16:54:58.690Z,35.88
2018-11-04T16:57:27.763Z,34.67
2018-11-04T16:59:56.537Z,34.83
2018-11-04T17:02:25.366Z,35.83
2018-11-04T17:04:54.288Z,36.20
2018-11-04T17:07:23.007Z,37.17
2018-11-04T17:09:51.949Z,36.45
2018-11-04T17:12:20.690Z,36.93
2018-11-04T17:14:49.783Z,35.92
2018-11-04T17:17:18.674Z,34.80
2018-11-04T17:19:47.465Z,36.42
2018-11-04T17:22:16.287Z,36.47
2018-11-04T17:24:45.142Z,37.70
2018-11-04T17:27:13.934Z,40.87
2018-11-04T17:29:42.827Z,39.10
2018-11-04T17:32:11.666Z,37.77
2018-11-04T17:34:41.447Z,36.88
2018-11-04T17:37:10.562Z,37.30
2018-11-04T17:39:39.311Z,37.80
2018-11-04T17:42:08.051Z,42.67
2018-11-04T17:44:36.879Z,40.20
2018-11-04T17:47:05.762Z,41.63
2018-11-04T17:49:34.505Z,39.47
2018-11-04T17:52:03.267Z,39.03
2018-11-04T17:54:32.283Z,39.03
2018-11-04T17:57:01.049Z,39.97
2018-11-04T17:59:29.805Z,40.60
2018-11-04T18:01:58.760Z,40.17
2018-11-04T18:04:27.498Z,39.83
2018-11-04T18:06:56.371Z,41.77
2018-11-04T18:09:25.220Z,40.38
2018-11-04T18:11:53.909Z,43.70
2018-11-04T18:14:22.696Z,42.73
2018-11-04T18:16:51.625Z,40.77
2018-11-04T18:19:20.422Z,41.08
2018-11-04T18:21:49.198Z,38.00
2018-11-04T18:24:18.095Z,40.70
2018-11-04T18:26:46.841Z,41.97
2018-11-04T18:29:15.574Z,38.60
2018-11-04T18:31:44.466Z,40.73
2018-11-04T18:34:13.636Z,37.90
2018-11-04T18:36:42.370Z,38.90
2018-11-04T18:39:12.043Z,39.93
2018-11-04T18:41:41.622Z,39.70
2018-11-04T18:44:10.461Z,42.43
2018-11-04T18:46:39.281Z,42.23
2018-11-04T18:49:08.084Z,38.33
2018-11-04T18:51:37.188Z,38.13
2018-11-04T18:54:06.137Z,39.23
2018-11-04T18:56:36.633Z,40.57
2018-11-04T18:59:05.895Z,41.30
2018-11-04T19:01:35.076Z,38.97
2018-11-04T19:04:03.994Z,40.13
2018-11-04T19:06:32.772Z,41.67
2018-11-04T19:09:02.016Z,41.92
2018-11-04T19:11:30.954Z,40.43
2018-11-04T19:13:59.702Z,40.20
2018-11-04T19:16:28.577Z,41.33
2018-11-04T19:18:58.300Z,44.58
2018-11-04T19:21:27.053Z,44.23
2018-11-04T19:23:55.957Z,41.08
2018-11-04T19:26:24.702Z,41.28
2018-11-04T19:28:53.506Z,43.07
2018-11-04T19:31:22.594Z,44.38
2018-11-04T19:33:51.624Z,43.97
2018-11-04T19:36:20.702Z,42.53
2018-11-04T19:38:49.550Z,41.83
2018-11-04T19:41:18.282Z,45.15
2018-11-04T19:43:47.065Z,45.78
2018-11-04T19:46:15.871Z,42.30
2018-11-04T19:48:44.703Z,44.80
2018-11-04T19:51:13.615Z,44.27
2018-11-04T19:53:42.365Z,44.90
2018-11-04T19:56:12.317Z,45.57
2018-11-04T19:58:41.839Z,45.00
2018-11-04T20:01:11.171Z,44.90
2018-11-04T20:03:39.968Z,45.63
2018-11-04T20:06:08.762Z,45.50
2018-11-04T20:08:40.700Z,46.83
2018-11-04T20:11:09.771Z,44.17
2018-11-04T20:13:44.199Z,46.37
2018-11-04T20:16:12.879Z,46.87
2018-11-04T20:18:47.702Z,50.12
2018-11-04T20:21:16.627Z,47.93
2018-11-04T20:23:45.457Z,45.87
2018-11-04T20:26:15.602Z,45.13
2018-11-04T20:28:44.442Z,42.80
2018-11-04T20:31:18.557Z,45.50
2018-11-04T20:33:49.432Z,47.08
2018-11-04T20:36:18.593Z,44.45
2018-11-04T20:41:47.386Z,46.05
2018-11-04T20:44:16.525Z,46.53
2018-11-04T20:46:45.291Z,42.30
2018-11-04T20:49:19.262Z,45.43
2018-11-04T20:51:48.297Z,46.58
2018-11-04T20:54:16.998Z,81.03
2018-11-04T20:56:51.041Z,57.53
2018-11-04T20:59:19.888Z,49.60
2018-11-04T21:01:48.659Z,46.37
2018-11-04T21:04:17.514Z,48.00
2018-11-04T21:06:46.406Z,47.35
2018-11-04T21:09:15.225Z,46.30
2018-11-04T21:11:44.177Z,46.20
2018-11-04T21:14:12.994Z,50.25
2018-11-04T21:16:42.103Z,49.30
2018-11-04T21:19:10.958Z,49.37
2018-11-04T21:21:39.749Z,46.17
2018-11-04T21:24:08.591Z,47.30
2018-11-04T21:26:37.772Z,48.23
2018-11-04T21:29:06.760Z,49.33
2018-11-04T21:31:35.386Z,49.23
2018-11-04T21:34:04.274Z,49.57
2018-11-04T21:36:33.158Z,50.57
2018-11-04T21:39:01.848Z,52.97
2018-11-04T21:41:30.646Z,50.47
2018-11-04T21:43:59.574Z,49.87
2018-11-04T21:46:28.206Z,51.10
2018-11-04T21:48:57.085Z,53.28
2018-11-04T21:51:25.824Z,51.40
2018-11-04T21:53:54.536Z,50.20
2018-11-04T21:56:23.487Z,50.17
2018-11-04T21:58:52.089Z,49.45
2018-11-04T22:01:20.941Z,48.60
2018-11-04T22:03:50.180Z,50.77
2018-11-04T22:06:18.714Z,53.63
2018-11-04T22:08:47.470Z,49.95
2018-11-04T22:11:16.360Z,52.07
2018-11-04T22:13:45.190Z,52.67
2018-11-04T22:16:14.057Z,51.73
2018-11-04T22:18:43.395Z,51.97
2018-11-04T22:21:12.215Z,50.93
2018-11-04T22:23:42.011Z,55.10
2018-11-04T22:26:10.945Z,52.97
2018-11-04T22:28:39.734Z,53.83
2018-11-04T22:31:09.039Z,51.73
2018-11-04T22:33:37.908Z,55.67
2018-11-04T22:36:06.866Z,52.90
2018-11-04T22:38:35.633Z,52.40
2018-11-04T22:41:05.141Z,54.10
2018-11-04T22:43:33.902Z,52.00
2018-11-04T22:46:03.375Z,53.93
2018-11-04T22:48:32.571Z,49.67
2018-11-04T22:51:01.429Z,50.33
2018-11-04T22:53:30.206Z,48.90
2018-11-04T22:55:59.266Z,51.08
2018-11-04T22:58:27.978Z,51.03
2018-11-04T23:01:01.717Z,50.07
2018-11-04T23:03:30.461Z,48.50
2018-11-04T23:06:07.309Z,51.90
2018-11-04T23:08:36.060Z,54.00
2018-11-04T23:11:05.041Z,50.40
2018-11-04T23:13:33.921Z,50.43
2018-11-04T23:16:02.707Z,50.13
2018-11-04T23:18:31.484Z,50.13
2018-11-04T23:21:00.541Z,49.13
2018-11-04T23:23:29.285Z,47.30
2018-11-04T23:25:58.090Z,51.55
2018-11-04T23:28:26.925Z,49.73
2018-11-04T23:30:55.638Z,49.13
2018-11-04T23:33:24.356Z,51.07
2018-11-04T23:35:53.179Z,49.65
2018-11-04T23:38:21.912Z,48.37
2018-11-04T23:40:50.678Z,48.48
2018-11-04T23:43:19.777Z,49.63
2018-11-04T23:45:48.501Z,48.47
2018-11-04T23:48:17.350Z,48.67
2018-11-04T23:50:46.182Z,50.40
2018-11-04T23:53:14.914Z,48.40
2018-11-04T23:55:43.699Z,50.20
2018-11-04T23:58:12.502Z,49.57
